Time;durP1;ratioP1;P1;durP2;ratioP2;P2;SDS_P1;SDS_P2;PMS_P1;PMS_P2;Temp;Humidity;BMP_temperature;BMP_pressure;BME280_temperature;BME280_humidity;BME280_pressure;Samples;Min_cycle;Max_cycle;Signal;HPM_P1;HPM_P2
2021/07/11 00:01:31;;;;;;;1.58;1.48;;;14.60;73.90;;;;;;4984259;28;96245;-51
2021/07/11 00:04:01;;;;;;;2.80;1.50;;;14.60;73.90;;;;;;4988715;28;95310;-51
2021/07/11 00:06:36;;;;;;;1.90;1.73;;;14.60;74.00;;;;;;4986191;28;95701;-50
2021/07/11 00:09:08;;;;;;;2.35;1.60;;;14.60;74.10;;;;;;4992755;28;95459;-53
2021/07/11 00:11:39;;;;;;;1.50;1.40;;;14.60;74.10;;;;;;4997977;28;95876;-54
2021/07/11 00:14:10;;;;;;;1.80;1.70;;;14.60;74.30;;;;;;5007003;28;95863;-54
2021/07/11 00:16:41;;;;;;;3.20;1.90;;;14.60;74.30;;;;;;5004471;27;95926;-51
2021/07/11 00:19:13;;;;;;;2.20;2.00;;;14.60;74.30;;;;;;4991870;28;96517;-52
2021/07/11 00:21:43;;;;;;;2.50;2.30;;;14.60;74.10;;;;;;4992007;28;95908;-51
2021/07/11 00:24:14;;;;;;;3.83;2.20;;;14.60;73.90;;;;;;5003276;28;95865;-51
2021/07/11 00:26:44;;;;;;;3.15;2.38;;;14.60;73.80;;;;;;4987604;28;95617;-53
2021/07/11 00:29:15;;;;;;;2.10;2.00;;;14.60;73.70;;;;;;4989951;28;95903;-53
2021/07/11 00:31:48;;;;;;;2.85;2.17;;;14.70;73.70;;;;;;4968710;28;97985;-51
2021/07/11 00:34:18;;;;;;;4.43;2.50;;;14.60;73.70;;;;;;5016875;28;95432;-52
2021/07/11 00:36:48;;;;;;;3.03;2.65;;;14.70;73.90;;;;;;4981032;28;95811;-51
2021/07/11 00:39:21;;;;;;;3.53;2.95;;;14.70;73.80;;;;;;4989042;28;96021;-51
2021/07/11 00:41:54;;;;;;;3.42;2.83;;;14.70;73.90;;;;;;4980846;28;97891;-52
2021/07/11 00:44:26;;;;;;;4.22;2.60;;;14.70;73.80;;;;;;4988100;28;96078;-53
2021/07/11 00:46:59;;;;;;;3.05;2.42;;;14.70;74.00;;;;;;4990535;28;102602;-54
2021/07/11 00:49:29;;;;;;;4.05;2.58;;;14.70;74.00;;;;;;4974436;28;95461;-55
2021/07/11 00:52:03;;;;;;;3.30;2.80;;;14.80;74.10;;;;;;4967955;28;96057;-55
2021/07/11 00:54:34;;;;;;;3.70;3.05;;;14.70;74.10;;;;;;5013809;28;95800;-55
2021/07/11 00:57:07;;;;;;;;;;;14.80;74.20;;;;;;5018415;27;103234;-53
2021/07/11 00:59:40;;;;;;;5.47;2.72;;;14.80;74.20;;;;;;5011096;28;95793;-56
2021/07/11 01:02:16;;;;;;;3.72;3.35;;;14.80;74.20;;;;;;5006607;27;96781;-58
2021/07/11 01:05:11;;;;;;;3.95;3.55;;;14.80;74.30;;;;;;5003746;28;96008;-53
2021/07/11 01:08:02;;;;;;;5.15;4.45;;;14.80;74.30;;;;;;4992587;28;95304;-54
2021/07/11 01:10:40;;;;;;;7.50;6.70;;;14.80;74.30;;;;;;4996928;28;95851;-52
2021/07/11 01:13:20;;;;;;;7.78;7.05;;;14.90;74.40;;;;;;4991046;27;96297;-54
2021/07/11 01:15:59;;;;;;;11.98;9.88;;;14.90;74.40;;;;;;4982421;28;95348;-54
2021/07/11 01:18:32;;;;;;;11.15;10.05;;;14.90;74.40;;;;;;4967464;28;95951;-54
2021/07/11 01:21:08;;;;;;;13.40;11.95;;;15.00;74.50;;;;;;4950370;28;95829;-52
2021/07/11 01:24:04;;;;;;;14.63;12.75;;;15.00;74.50;;;;;;4974177;28;95943;-55
2021/07/11 01:26:35;;;;;;;;;;;15.00;74.50;;;;;;4980181;28;97282;-53
2021/07/11 01:29:07;;;;;;;14.73;12.57;;;15.10;74.50;;;;;;4953955;28;95910;-55
2021/07/11 01:31:41;;;;;;;14.15;12.45;;;15.00;74.40;;;;;;4970419;28;97620;-53
2021/07/11 01:34:12;;;;;;;15.48;12.82;;;15.10;74.40;;;;;;4958805;28;96678;-53
2021/07/11 01:36:45;;;;;;;14.93;12.55;;;15.10;74.40;;;;;;4974522;28;95779;-52
2021/07/11 01:39:22;;;;;;;17.65;13.25;;;15.20;74.40;;;;;;4980778;28;95840;-53
2021/07/11 01:41:53;;;;;;;14.15;12.45;;;15.20;74.20;;;;;;4976164;28;95382;-60
2021/07/11 01:44:28;;;;;;;15.52;12.77;;;15.20;74.10;;;;;;4985637;28;98436;-55
2021/07/11 01:47:01;;;;;;;14.02;11.95;;;15.30;73.90;;;;;;4979527;28;96429;-52
2021/07/11 01:49:32;;;;;;;13.13;11.75;;;15.30;73.80;;;;;;4968305;28;95690;-52
2021/07/11 01:52:05;;;;;;;13.15;11.52;;;15.30;73.90;;;;;;4967996;28;95836;-53
2021/07/11 01:54:37;;;;;;;14.15;12.27;;;15.40;73.80;;;;;;4962650;28;96478;-52
2021/07/11 01:57:10;;;;;;;14.00;11.45;;;15.40;73.80;;;;;;4967608;28;95997;-57
2021/07/11 01:59:48;;;;;;;12.90;10.82;;;15.40;73.10;;;;;;4954268;28;95683;-54
2021/07/11 02:02:26;;;;;;;12.50;10.45;;;15.40;73.20;;;;;;4962123;28;95984;-53
2021/07/11 02:05:12;;;;;;;11.85;10.57;;;15.40;73.30;;;;;;4972165;28;99201;-51
2021/07/11 02:07:43;;;;;;;11.43;10.02;;;15.50;73.40;;;;;;4977602;28;95888;-53
2021/07/11 02:10:18;;;;;;;11.73;10.52;;;15.50;73.60;;;;;;4976992;28;96385;-54
2021/07/11 02:13:16;;;;;;;10.88;9.07;;;15.50;73.40;;;;;;4990297;28;95960;-55
2021/07/11 02:15:50;;;;;;;10.68;9.57;;;15.60;73.40;;;;;;4997429;28;96093;-54
2021/07/11 02:18:26;;;;;;;10.80;9.70;;;15.60;73.40;;;;;;5017094;28;95962;-52
2021/07/11 02:20:58;;;;;;;10.02;8.95;;;15.60;73.40;;;;;;4970664;28;95966;-51
2021/07/11 02:23:33;;;;;;;9.43;8.52;;;15.70;73.40;;;;;;4990624;28;96109;-54
2021/07/11 02:26:09;;;;;;;10.10;9.05;;;15.70;73.30;;;;;;4986930;28;98110;-53
2021/07/11 02:28:45;;;;;;;9.38;8.35;;;15.70;73.10;;;;;;4980811;28;96455;-54
2021/07/11 02:31:16;;;;;;;9.25;7.95;;;15.80;73.20;;;;;;4991782;28;95748;-54
2021/07/11 02:33:49;;;;;;;10.40;8.60;;;15.80;73.10;;;;;;4997848;28;96046;-53
2021/07/11 02:36:29;;;;;;;9.93;8.23;;;15.80;73.10;;;;;;4969341;28;96527;-59
2021/07/11 02:39:06;;;;;;;10.45;9.35;;;15.90;73.10;;;;;;5007776;28;97576;-61
2021/07/11 02:41:58;;;;;;;10.07;7.90;;;15.90;73.00;;;;;;4996237;28;95703;-56
2021/07/11 02:44:30;;;;;;;7.95;6.88;;;15.90;72.90;;;;;;5010265;27;96088;-59
2021/07/11 02:47:12;;;;;;;8.73;7.88;;;15.90;72.80;;;;;;4972690;28;96177;-59
2021/07/11 02:49:51;;;;;;;8.40;6.95;;;16.00;72.80;;;;;;4987401;28;98287;-57
2021/07/11 02:52:27;;;;;;;7.38;6.57;;;16.00;72.70;;;;;;4971190;28;95229;-53
2021/07/11 02:55:12;;;;;;;8.52;7.43;;;16.00;72.60;;;;;;4972578;28;95563;-52
2021/07/11 02:57:52;;;;;;;10.13;6.95;;;16.00;72.60;;;;;;4991298;28;96409;-55
2021/07/11 03:00:25;;;;;;;7.97;7.13;;;16.10;72.90;;;;;;5007464;28;95749;-55
2021/07/11 03:02:57;;;;;;;;;;;16.20;73.00;;;;;;4998028;28;95362;-51
2021/07/11 03:05:38;;;;;;;8.80;5.80;;;16.20;72.90;;;;;;4996166;28;95329;-55
2021/07/11 03:08:10;;;;;;;8.05;6.50;;;16.30;72.90;;;;;;4988564;28;95891;-59
2021/07/11 03:10:44;;;;;;;6.75;5.85;;;16.40;72.60;;;;;;5006137;28;97363;-59
2021/07/11 03:13:18;;;;;;;7.50;5.28;;;16.40;72.50;;;;;;5010492;27;95305;-60
2021/07/11 03:15:50;;;;;;;6.28;5.68;;;16.40;72.70;;;;;;4992519;28;95557;-60
2021/07/11 03:18:24;;;;;;;7.13;5.80;;;16.50;72.40;;;;;;4978624;28;96218;-58
2021/07/11 03:20:58;;;;;;;8.73;5.53;;;16.50;72.20;;;;;;5010223;28;95668;-59
2021/07/11 03:23:29;;;;;;;;;;;16.60;72.50;;;;;;4992738;28;96054;-59
2021/07/11 03:26:01;;;;;;;6.13;5.07;;;16.60;72.30;;;;;;4991756;28;98574;-59
2021/07/11 03:28:34;;;;;;;6.10;5.50;;;16.70;72.30;;;;;;4992197;28;96030;-59
2021/07/11 03:31:11;;;;;;;7.63;5.00;;;16.70;72.10;;;;;;4990227;28;95431;-60
2021/07/11 03:33:46;;;;;;;9.32;5.45;;;16.80;72.00;;;;;;4994901;28;95871;-59
2021/07/11 03:36:18;;;;;;;6.43;4.47;;;16.80;71.90;;;;;;4977504;28;95935;-58
2021/07/11 03:39:06;;;;;;;6.97;5.65;;;16.90;71.80;;;;;;4993072;28;97187;-60
2021/07/11 03:41:41;;;;;;;4.93;4.38;;;17.00;71.80;;;;;;4989661;28;95919;-60
2021/07/11 03:44:18;;;;;;;6.15;4.65;;;17.00;71.60;;;;;;4977192;28;97524;-59
2021/07/11 03:46:52;;;;;;;7.32;5.03;;;17.10;71.60;;;;;;4992716;28;97760;-60
2021/07/11 03:49:22;;;;;;;5.35;4.60;;;17.10;71.40;;;;;;4990793;28;95908;-59
2021/07/11 03:51:57;;;;;;;6.20;5.03;;;17.20;71.40;;;;;;4992743;28;95851;-59
2021/07/11 03:54:33;;;;;;;5.80;4.00;;;17.20;71.20;;;;;;4995357;28;95784;-54
2021/07/11 03:57:06;;;;;;;7.95;5.15;;;17.30;71.20;;;;;;4993111;28;95328;-59
2021/07/11 03:59:41;;;;;;;14.27;5.03;;;17.30;71.00;;;;;;5004004;28;97935;-59
2021/07/11 04:02:12;;;;;;;11.73;4.78;;;17.20;71.40;;;;;;4988122;28;95781;-59
2021/07/11 04:04:45;;;;;;;9.13;4.25;;;17.10;72.00;;;;;;5000101;28;95852;-56
2021/07/11 04:07:24;;;;;;;7.55;4.80;;;17.00;72.40;;;;;;4990097;28;95662;-58
2021/07/11 04:09:56;;;;;;;8.27;3.78;;;17.00;72.70;;;;;;4994428;28;96550;-58
2021/07/11 04:12:31;;;;;;;11.95;5.00;;;17.00;72.80;;;;;;4990646;28;95536;-58
2021/07/11 04:15:01;;;;;;;4.78;3.85;;;17.10;72.40;;;;;;4988105;28;98373;-56
2021/07/11 04:17:34;;;;;;;5.63;4.30;;;17.20;71.90;;;;;;4970090;28;96121;-56
2021/07/11 04:20:07;;;;;;;6.80;3.92;;;17.30;71.70;;;;;;4974365;28;96343;-58
2021/07/11 04:22:39;;;;;;;4.50;3.83;;;17.30;71.60;;;;;;4995257;28;97461;-59
2021/07/11 04:25:14;;;;;;;5.13;3.83;;;17.30;71.70;;;;;;5003270;28;96534;-56
2021/07/11 04:27:44;;;;;;;5.43;4.45;;;17.30;72.10;;;;;;4994877;28;96659;-54
2021/07/11 04:30:16;;;;;;;16.55;4.40;;;17.20;72.50;;;;;;4974608;28;96607;-58
2021/07/11 04:32:47;;;;;;;10.18;4.35;;;17.10;72.70;;;;;;4998001;28;95670;-53
2021/07/11 04:35:18;;;;;;;9.50;4.13;;;17.10;72.90;;;;;;4995162;28;95754;-54
2021/07/11 04:37:49;;;;;;;;;;;17.00;73.20;;;;;;5005242;28;95807;-54
2021/07/11 04:40:20;;;;;;;6.88;4.63;;;16.90;73.50;;;;;;5006175;28;96463;-57
2021/07/11 04:42:51;;;;;;;5.90;3.92;;;16.90;73.70;;;;;;4996320;28;95890;-54
2021/07/11 04:45:22;;;;;;;8.57;4.15;;;16.90;73.70;;;;;;4993650;28;95881;-57
2021/07/11 04:47:53;;;;;;;6.43;4.10;;;16.80;73.70;;;;;;5002477;28;95950;-56
2021/07/11 04:50:24;;;;;;;9.05;4.40;;;16.80;73.90;;;;;;5003826;28;95849;-53
2021/07/11 04:52:55;;;;;;;;;;;16.80;74.00;;;;;;5003674;28;96075;-55
2021/07/11 04:55:27;;;;;;;7.07;3.87;;;16.70;74.10;;;;;;5008748;28;95459;-55
2021/07/11 04:57:57;;;;;;;6.37;4.83;;;16.80;74.20;;;;;;5003535;28;95777;-57
2021/07/11 05:00:29;;;;;;;5.40;3.63;;;16.80;74.20;;;;;;5000659;28;96665;-57
2021/07/11 05:03:00;;;;;;;6.38;3.13;;;16.70;74.20;;;;;;4999606;28;95857;-57
2021/07/11 05:05:34;;;;;;;;;;;16.70;74.30;;;;;;4998229;28;96021;-55
2021/07/11 05:08:07;;;;;;;4.38;3.35;;;16.70;74.40;;;;;;5018420;27;102292;-53
2021/07/11 05:10:38;;;;;;;7.20;4.13;;;16.70;74.40;;;;;;4991904;28;96678;-53
2021/07/11 05:13:09;;;;;;;5.40;2.75;;;16.70;74.50;;;;;;5002763;28;95273;-56
2021/07/11 05:15:39;;;;;;;4.47;3.27;;;16.70;74.30;;;;;;4998139;28;95303;-57
2021/07/11 05:18:09;;;;;;;4.28;3.80;;;16.70;74.40;;;;;;4997601;28;98307;-55
2021/07/11 05:20:39;;;;;;;4.07;3.20;;;16.70;74.40;;;;;;5001486;28;96403;-56
2021/07/11 05:23:09;;;;;;;5.05;3.08;;;16.70;74.40;;;;;;4989962;28;95875;-53
2021/07/11 05:25:39;;;;;;;4.03;3.05;;;16.70;74.50;;;;;;4988052;28;95674;-54
2021/07/11 05:28:10;;;;;;;4.15;3.13;;;16.70;74.40;;;;;;4967877;28;97453;-54
2021/07/11 05:30:40;;;;;;;6.20;3.47;;;16.80;74.10;;;;;;4986100;28;97825;-52
2021/07/11 05:33:10;;;;;;;4.72;3.28;;;16.90;73.60;;;;;;4979593;28;95770;-57
2021/07/11 05:35:40;;;;;;;3.97;3.17;;;17.00;73.50;;;;;;4988824;28;96029;-58
2021/07/11 05:38:15;;;;;;;3.17;2.50;;;17.00;73.30;;;;;;4988415;28;96144;-54
2021/07/11 05:40:48;;;;;;;3.17;2.88;;;17.00;73.40;;;;;;5002625;28;96100;-56
2021/07/11 05:43:20;;;;;;;5.68;3.08;;;17.00;73.30;;;;;;4996265;28;95935;-52
2021/07/11 05:45:51;;;;;;;3.80;2.97;;;17.00;73.20;;;;;;4997266;28;96226;-55
2021/07/11 05:48:23;;;;;;;;;;;17.10;73.20;;;;;;4974999;28;102528;-55
2021/07/11 05:50:59;;;;;;;2.28;2.00;;;17.10;73.10;;;;;;4982244;28;95930;-54
2021/07/11 05:53:29;;;;;;;3.45;2.50;;;17.10;73.20;;;;;;4981961;28;95533;-59
2021/07/11 05:55:59;;;;;;;7.00;3.13;;;17.00;73.20;;;;;;4965201;28;95980;-58
2021/07/11 05:58:29;;;;;;;3.88;2.40;;;17.10;73.40;;;;;;4972086;28;97013;-56
2021/07/11 06:01:00;;;;;;;2.53;2.33;;;17.00;73.40;;;;;;4969170;28;96112;-56
2021/07/11 06:03:30;;;;;;;2.85;2.00;;;17.00;73.40;;;;;;4959201;28;95977;-54
2021/07/11 06:06:02;;;;;;;2.33;2.10;;;17.00;73.40;;;;;;4982747;28;95811;-58
2021/07/11 06:08:34;;;;;;;2.88;2.05;;;17.10;73.40;;;;;;4977993;28;95903;-53
2021/07/11 06:11:05;;;;;;;2.17;2.00;;;17.10;73.30;;;;;;4973793;28;97265;-57
2021/07/11 06:13:36;;;;;;;1.83;1.70;;;17.10;73.30;;;;;;4959586;28;98668;-58
2021/07/11 06:16:07;;;;;;;2.88;2.03;;;17.10;73.40;;;;;;4975137;28;95769;-58
2021/07/11 06:18:38;;;;;;;3.13;1.80;;;17.10;73.40;;;;;;4993845;28;95991;-57
2021/07/11 06:21:08;;;;;;;3.28;2.40;;;17.00;73.40;;;;;;4994911;28;96641;-54
2021/07/11 06:23:38;;;;;;;2.30;1.73;;;17.00;73.50;;;;;;5003162;28;95778;-56
2021/07/11 06:26:08;;;;;;;1.98;1.70;;;17.00;73.60;;;;;;4997356;28;97113;-58
2021/07/11 06:28:39;;;;;;;2.72;1.50;;;17.00;73.60;;;;;;5005903;28;95551;-58
2021/07/11 06:31:11;;;;;;;2.67;2.03;;;17.00;73.60;;;;;;4989448;28;96134;-56
2021/07/11 06:33:41;;;;;;;2.47;1.75;;;17.00;73.60;;;;;;5001190;28;95588;-57
2021/07/11 06:36:13;;;;;;;4.03;2.03;;;17.00;73.50;;;;;;4994802;28;96049;-55
2021/07/11 06:38:46;;;;;;;7.60;2.50;;;17.00;73.60;;;;;;4991815;28;95689;-56
2021/07/11 06:41:19;;;;;;;5.93;2.72;;;17.00;73.60;;;;;;4997178;28;96554;-57
2021/07/11 06:43:49;;;;;;;8.02;3.38;;;17.00;73.70;;;;;;5000583;28;95292;-56
2021/07/11 06:46:19;;;;;;;12.65;3.78;;;16.90;73.60;;;;;;4987982;28;96009;-57
2021/07/11 06:48:50;;;;;;;13.00;4.20;;;17.00;73.80;;;;;;5011159;28;98069;-57
2021/07/11 06:51:21;;;;;;;15.80;5.00;;;17.00;73.80;;;;;;4980267;28;96756;-56
2021/07/11 06:53:53;;;;;;;15.98;4.60;;;17.00;73.80;;;;;;5003001;28;95489;-56
2021/07/11 06:56:23;;;;;;;13.77;5.03;;;17.00;74.00;;;;;;5000143;28;95903;-55
2021/07/11 06:58:57;;;;;;;14.55;5.15;;;17.00;74.10;;;;;;5000708;28;95371;-55
2021/07/11 07:01:28;;;;;;;16.73;6.13;;;17.00;74.20;;;;;;4989207;28;95956;-57
2021/07/11 07:03:58;;;;;;;16.45;6.05;;;17.00;74.60;;;;;;4991472;28;95710;-56
2021/07/11 07:06:29;;;;;;;17.75;6.13;;;17.00;74.50;;;;;;4996053;28;95240;-53
2021/07/11 07:09:00;;;;;;;14.15;5.70;;;17.00;74.40;;;;;;4991724;28;95292;-57
2021/07/11 07:11:31;;;;;;;14.77;6.40;;;17.00;74.50;;;;;;4999369;28;97078;-58
2021/07/11 07:14:03;;;;;;;13.95;5.55;;;17.00;74.50;;;;;;4992178;28;97677;-56
2021/07/11 07:16:33;;;;;;;14.00;4.78;;;17.00;74.60;;;;;;4991330;28;98900;-58
2021/07/11 07:19:03;;;;;;;19.35;5.65;;;17.00;74.70;;;;;;5004529;28;95871;-55
2021/07/11 07:21:33;;;;;;;11.73;5.00;;;17.00;74.80;;;;;;4996974;28;95999;-53
2021/07/11 07:24:03;;;;;;;15.15;5.28;;;16.90;75.10;;;;;;4998994;28;96040;-56
2021/07/11 07:26:33;;;;;;;15.48;5.35;;;16.90;75.10;;;;;;5008830;28;95739;-57
2021/07/11 07:29:05;;;;;;;14.32;5.10;;;16.90;75.00;;;;;;4996379;28;95500;-58
2021/07/11 07:31:36;;;;;;;14.57;6.13;;;16.90;75.00;;;;;;4987233;28;95924;-56
2021/07/11 07:34:06;;;;;;;12.73;5.35;;;17.00;75.20;;;;;;4971613;28;95862;-55
2021/07/11 07:36:38;;;;;;;12.93;4.82;;;17.00;75.30;;;;;;4988494;28;95757;-57
2021/07/11 07:39:10;;;;;;;14.60;5.50;;;16.90;75.20;;;;;;4996437;28;95837;-58
2021/07/11 07:41:43;;;;;;;15.48;5.20;;;17.00;75.40;;;;;;5004011;28;96286;-59
2021/07/11 07:44:13;;;;;;;9.68;4.20;;;16.90;75.70;;;;;;4993559;28;95913;-59
2021/07/11 07:46:43;;;;;;;9.73;4.43;;;16.90;75.70;;;;;;4999801;28;95874;-57
2021/07/11 07:49:13;;;;;;;8.23;4.90;;;16.90;75.60;;;;;;4999480;28;95733;-59
2021/07/11 07:51:44;;;;;;;15.00;5.32;;;16.90;75.90;;;;;;5007642;28;98121;-56
2021/07/11 07:54:15;;;;;;;10.30;4.03;;;16.90;75.70;;;;;;5004963;28;95789;-57
2021/07/11 07:56:46;;;;;;;12.63;4.53;;;16.80;75.70;;;;;;4996275;28;95277;-58
2021/07/11 07:59:17;;;;;;;8.57;3.58;;;16.80;75.60;;;;;;4989700;28;95774;-59
2021/07/11 08:01:49;;;;;;;12.45;4.97;;;16.80;75.50;;;;;;4989213;28;95929;-59
2021/07/11 08:04:20;;;;;;;;;;;16.80;75.50;;;;;;4985763;28;95851;-59
2021/07/11 08:06:51;;;;;;;7.00;4.05;;;16.70;75.30;;;;;;5011418;28;96130;-57
2021/07/11 08:09:21;;;;;;;10.27;4.05;;;16.70;75.30;;;;;;4979205;28;95717;-55
2021/07/11 08:11:53;;;;;;;8.52;4.22;;;16.70;75.20;;;;;;5006196;28;96067;-58
2021/07/11 08:14:24;;;;;;;8.40;4.18;;;16.70;76.10;;;;;;4977196;28;101274;-60
2021/07/11 08:16:56;;;;;;;6.95;4.07;;;16.70;78.30;;;;;;4996640;28;97425;-57
2021/07/11 08:19:31;;;;;;;8.98;4.05;;;16.90;78.40;;;;;;4992941;28;96029;-56
2021/07/11 08:22:01;;;;;;;7.50;4.10;;;17.00;77.90;;;;;;4996180;28;96578;-60
2021/07/11 08:24:34;;;;;;;6.60;3.45;;;17.00;77.40;;;;;;5011178;27;97410;-55
2021/07/11 08:27:04;;;;;;;9.70;4.05;;;17.10;77.40;;;;;;5000330;28;95467;-56
2021/07/11 08:29:36;;;;;;;7.13;3.45;;;17.10;77.30;;;;;;4995453;28;95736;-59
2021/07/11 08:32:08;;;;;;;5.65;3.95;;;17.20;77.20;;;;;;4995731;28;96724;-58
2021/07/11 08:34:39;;;;;;;5.65;3.30;;;17.20;77.40;;;;;;4996520;28;96001;-53
2021/07/11 08:37:11;;;;;;;6.45;3.80;;;17.20;77.10;;;;;;4996663;28;97342;-58
2021/07/11 08:39:42;;;;;;;9.77;4.05;;;17.20;76.80;;;;;;4996561;28;95784;-57
2021/07/11 08:42:18;;;;;;;8.30;3.40;;;17.20;76.70;;;;;;5000040;28;99198;-55
2021/07/11 08:44:49;;;;;;;6.35;4.00;;;17.20;76.60;;;;;;4985975;28;96265;-55
2021/07/11 08:47:21;;;;;;;5.85;2.78;;;17.20;76.40;;;;;;4994966;28;96006;-55
2021/07/11 08:49:51;;;;;;;8.30;3.38;;;17.20;76.30;;;;;;4998202;28;95896;-56
2021/07/11 08:52:22;;;;;;;6.32;3.25;;;17.20;76.10;;;;;;4988108;28;95860;-55
2021/07/11 08:54:52;;;;;;;5.35;3.13;;;17.20;76.00;;;;;;4995496;28;96536;-56
2021/07/11 08:57:23;;;;;;;8.10;3.97;;;17.20;75.80;;;;;;4997835;28;96117;-53
2021/07/11 08:59:54;;;;;;;4.18;3.33;;;17.20;75.80;;;;;;4993589;28;95810;-53
2021/07/11 09:02:25;;;;;;;4.03;2.90;;;17.20;75.60;;;;;;4991236;28;96583;-54
2021/07/11 09:04:56;;;;;;;6.28;3.10;;;17.20;75.50;;;;;;4999115;28;96278;-52
2021/07/11 09:07:27;;;;;;;3.92;2.70;;;17.10;75.40;;;;;;4979851;28;96397;-56
2021/07/11 09:10:00;;;;;;;4.15;2.25;;;17.10;75.30;;;;;;4996441;28;95870;-58
2021/07/11 09:12:31;;;;;;;6.63;3.05;;;17.10;75.10;;;;;;4997421;28;98022;-58
2021/07/11 09:15:03;;;;;;;4.32;2.90;;;17.10;75.00;;;;;;5001461;28;96278;-52
2021/07/11 09:17:33;;;;;;;;;;;17.10;75.00;;;;;;4993247;28;95805;-59
2021/07/11 09:20:07;;;;;;;8.25;3.38;;;17.10;74.80;;;;;;5002126;28;95735;-52
2021/07/11 09:22:37;;;;;;;4.95;3.33;;;17.10;74.70;;;;;;4996476;28;96512;-57
2021/07/11 09:25:08;;;;;;;3.15;2.72;;;17.10;74.70;;;;;;4980530;28;96559;-58
2021/07/11 09:27:40;;;;;;;3.60;3.15;;;17.10;74.60;;;;;;4993701;28;96682;-54
2021/07/11 09:30:12;;;;;;;4.38;3.38;;;17.10;74.50;;;;;;4996765;28;96155;-53
2021/07/11 09:32:43;;;;;;;4.75;3.17;;;17.10;74.40;;;;;;4995196;28;103840;-52
2021/07/11 09:35:16;;;;;;;5.80;3.13;;;17.10;74.30;;;;;;4998447;28;95810;-58
2021/07/11 09:37:55;;;;;;;3.88;2.90;;;17.10;74.30;;;;;;4997041;28;95605;-52
2021/07/11 09:40:28;;;;;;;4.40;3.28;;;17.00;74.10;;;;;;5000411;28;95889;-54
2021/07/11 09:43:00;;;;;;;3.28;2.92;;;17.00;74.20;;;;;;4986370;28;96506;-51
2021/07/11 09:45:33;;;;;;;5.82;3.47;;;17.00;74.00;;;;;;4986932;28;100511;-56
2021/07/11 09:48:10;;;;;;;4.25;3.55;;;17.00;73.90;;;;;;4997689;28;96618;-57
2021/07/11 09:50:41;;;;;;;4.82;3.05;;;17.10;73.90;;;;;;5000842;28;95754;-58
2021/07/11 09:53:13;;;;;;;5.25;3.40;;;17.00;73.70;;;;;;4997760;28;95932;-57
2021/07/11 09:55:44;;;;;;;6.00;3.63;;;17.00;73.70;;;;;;4998664;28;96430;-54
2021/07/11 09:58:15;;;;;;;3.80;3.03;;;17.00;73.60;;;;;;4995310;28;95825;-57
2021/07/11 10:00:46;;;;;;;4.97;3.53;;;17.00;73.60;;;;;;4991102;28;97307;-53
2021/07/11 10:03:18;;;;;;;6.80;3.58;;;17.00;73.50;;;;;;4997173;28;95896;-53
2021/07/11 10:05:49;;;;;;;4.88;3.80;;;17.00;73.50;;;;;;5000118;28;95668;-52
2021/07/11 10:08:21;;;;;;;4.95;3.97;;;17.00;73.40;;;;;;4988530;28;96185;-57
2021/07/11 10:10:53;;;;;;;4.82;3.25;;;16.90;73.20;;;;;;4997375;28;96272;-58
2021/07/11 10:13:24;;;;;;;5.10;3.88;;;17.00;73.20;;;;;;4992021;28;96634;-51
2021/07/11 10:15:55;;;;;;;4.38;3.92;;;16.90;73.10;;;;;;4971168;28;98001;-54
2021/07/11 10:18:29;;;;;;;5.50;3.75;;;16.90;73.20;;;;;;4994377;28;95778;-56
2021/07/11 10:21:00;;;;;;;5.55;3.85;;;16.90;73.10;;;;;;4999248;28;95940;-51
2021/07/11 10:23:36;;;;;;;4.72;3.88;;;16.90;73.60;;;;;;4996912;28;97069;-56
2021/07/11 10:26:13;;;;;;;5.07;3.92;;;16.90;73.00;;;;;;4999038;28;95983;-57
2021/07/11 10:28:49;;;;;;;4.40;3.45;;;16.90;72.90;;;;;;5002304;28;95848;-56
2021/07/11 10:31:26;;;;;;;4.60;4.07;;;16.80;72.80;;;;;;4997111;28;95837;-57
2021/07/11 10:33:58;;;;;;;5.20;3.97;;;16.80;72.80;;;;;;4993931;28;95845;-56
2021/07/11 10:36:39;;;;;;;4.53;3.73;;;16.80;72.70;;;;;;5002502;28;95329;-53
2021/07/11 10:39:14;;;;;;;3.88;3.47;;;16.90;72.70;;;;;;5000453;28;96089;-53
2021/07/11 10:41:53;;;;;;;4.75;4.05;;;16.80;72.60;;;;;;5003466;28;95705;-57
2021/07/11 10:44:26;;;;;;;6.53;4.30;;;16.80;72.60;;;;;;4995269;28;95902;-58
2021/07/11 10:47:02;;;;;;;5.13;4.05;;;16.80;72.50;;;;;;4995961;28;96597;-57
2021/07/11 10:49:50;;;;;;;4.75;4.22;;;16.80;72.50;;;;;;4994145;28;96822;-50
2021/07/11 10:52:25;;;;;;;5.30;3.88;;;16.70;72.40;;;;;;5000400;28;96044;-54
2021/07/11 10:55:00;;;;;;;4.45;4.05;;;16.70;72.40;;;;;;4983352;28;95883;-57
2021/07/11 10:57:36;;;;;;;5.90;4.38;;;16.70;72.40;;;;;;5003129;28;95730;-51
2021/07/11 11:00:17;;;;;;;5.55;4.45;;;16.70;72.40;;;;;;4995300;28;95432;-51
2021/07/11 11:02:52;;;;;;;6.50;4.55;;;16.70;72.30;;;;;;4997609;28;95745;-57
2021/07/11 11:05:25;;;;;;;4.78;4.22;;;16.70;72.20;;;;;;4997018;28;96230;-57
2021/07/11 11:08:11;;;;;;;5.05;4.05;;;16.70;72.20;;;;;;4997970;28;96130;-51
2021/07/11 11:10:44;;;;;;;4.18;3.78;;;16.70;72.10;;;;;;4999111;28;95976;-52
2021/07/11 11:13:21;;;;;;;4.75;4.30;;;16.70;72.20;;;;;;5002202;28;96086;-58
2021/07/11 11:16:01;;;;;;;5.70;4.40;;;16.70;72.10;;;;;;4993466;28;95452;-54
2021/07/11 11:18:33;;;;;;;4.70;4.20;;;16.60;72.00;;;;;;5000583;28;95700;-56
2021/07/11 11:21:07;;;;;;;4.32;3.92;;;16.60;72.10;;;;;;4981294;28;96197;-57
2021/07/11 11:23:46;;;;;;;6.30;4.22;;;16.60;72.20;;;;;;4997321;28;96618;-56
2021/07/11 11:26:28;;;;;;;5.70;4.60;;;16.60;72.10;;;;;;4997940;28;95889;-57
2021/07/11 11:29:02;;;;;;;7.30;4.72;;;16.60;72.10;;;;;;5000934;28;96936;-54
2021/07/11 11:31:37;;;;;;;5.97;4.90;;;16.50;71.90;;;;;;4994225;28;98652;-51
2021/07/11 11:34:11;;;;;;;7.57;6.07;;;16.50;72.10;;;;;;5014582;28;95824;-52
2021/07/11 11:36:48;;;;;;;6.75;5.25;;;16.50;71.20;;;;;;5000934;28;97910;-53
2021/07/11 11:39:31;;;;;;;7.75;5.75;;;16.50;72.20;;;;;;4998556;28;95878;-54
2021/07/11 11:42:06;;;;;;;6.03;5.20;;;16.50;72.30;;;;;;4996887;28;95772;-54
2021/07/11 11:44:36;;;;;;;6.45;5.68;;;16.50;72.30;;;;;;4992097;28;96121;-53
2021/07/11 11:47:06;;;;;;;8.52;6.65;;;16.50;72.20;;;;;;4992247;28;101744;-55
2021/07/11 11:49:40;;;;;;;7.18;5.47;;;16.50;72.20;;;;;;5002461;28;95863;-54
2021/07/11 11:52:12;;;;;;;8.48;6.72;;;16.40;72.10;;;;;;4999449;28;96246;-51
2021/07/11 11:54:44;;;;;;;8.27;6.03;;;16.50;72.10;;;;;;5000442;28;95362;-51
2021/07/11 11:57:15;;;;;;;8.73;6.65;;;16.40;72.10;;;;;;4992205;28;96462;-53
2021/07/11 11:59:49;;;;;;;6.95;5.57;;;16.40;72.00;;;;;;4998480;28;95902;-53
2021/07/11 12:02:23;;;;;;;7.85;6.22;;;16.40;72.00;;;;;;4987918;28;96106;-55
2021/07/11 12:04:55;;;;;;;8.63;6.70;;;16.40;71.70;;;;;;4993034;28;95962;-52
2021/07/11 12:07:26;;;;;;;8.35;6.55;;;16.30;71.80;;;;;;4982638;28;95874;-52
2021/07/11 12:09:57;;;;;;;10.20;6.65;;;16.20;71.90;;;;;;4984858;28;97228;-52
2021/07/11 12:12:28;;;;;;;8.07;6.50;;;16.20;72.00;;;;;;4994767;28;97856;-50
2021/07/11 12:15:02;;;;;;;8.63;6.83;;;16.20;72.10;;;;;;4993440;28;97111;-50
2021/07/11 12:17:34;;;;;;;9.25;6.03;;;16.10;72.20;;;;;;5002078;28;95982;-55
2021/07/11 12:20:08;;;;;;;8.10;6.70;;;16.10;72.30;;;;;;4993437;28;95935;-55
2021/07/11 12:22:38;;;;;;;8.02;6.10;;;16.00;72.90;;;;;;4996448;28;95942;-51
2021/07/11 12:25:18;;;;;;;8.13;6.53;;;15.90;72.30;;;;;;4993067;28;96844;-52
2021/07/11 12:27:58;;;;;;;8.20;6.65;;;16.00;72.50;;;;;;4990184;28;95884;-53
2021/07/11 12:30:38;;;;;;;6.80;5.97;;;15.90;72.50;;;;;;4983703;28;96051;-52
2021/07/11 12:33:09;;;;;;;8.27;6.07;;;15.90;72.60;;;;;;4975882;28;95911;-52
2021/07/11 12:35:49;;;;;;;9.00;6.35;;;15.90;72.60;;;;;;4973221;28;95527;-55
2021/07/11 12:38:38;;;;;;;7.50;5.97;;;15.80;72.60;;;;;;4983716;28;95766;-50
2021/07/11 12:41:11;;;;;;;7.32;6.00;;;15.80;72.60;;;;;;4981550;28;96076;-54
2021/07/11 12:43:54;;;;;;;9.15;7.88;;;15.80;72.70;;;;;;4964319;28;95738;-53
2021/07/11 12:46:27;;;;;;;8.77;6.47;;;15.70;72.70;;;;;;4968910;28;95896;-56
2021/07/11 12:49:08;;;;;;;8.95;6.60;;;15.70;72.70;;;;;;4988048;28;95880;-50
2021/07/11 12:51:53;;;;;;;9.65;6.80;;;15.70;72.70;;;;;;4991894;28;95930;-54
2021/07/11 12:54:26;;;;;;;9.85;6.97;;;15.70;72.80;;;;;;4993687;28;95572;-51
2021/07/11 12:57:03;;;;;;;8.32;6.30;;;15.60;72.80;;;;;;4999221;28;95859;-50
2021/07/11 12:59:54;;;;;;;10.32;7.35;;;15.60;72.80;;;;;;4987785;28;96520;-53
2021/07/11 13:02:29;;;;;;;8.85;7.30;;;15.60;72.90;;;;;;4972826;28;95969;-50
2021/07/11 13:05:05;;;;;;;9.50;7.18;;;15.50;72.80;;;;;;4966093;28;95785;-53
2021/07/11 13:07:36;;;;;;;9.68;6.53;;;15.50;72.90;;;;;;4986652;28;95356;-52
2021/07/11 13:10:08;;;;;;;8.20;6.57;;;15.50;72.90;;;;;;4969016;28;95904;-52
2021/07/11 13:12:44;;;;;;;9.88;7.65;;;15.50;73.00;;;;;;4974610;28;98061;-55
2021/07/11 13:15:15;;;;;;;10.53;7.70;;;15.40;73.00;;;;;;4954254;28;101569;-55
2021/07/11 13:17:46;;;;;;;8.43;6.80;;;15.40;73.00;;;;;;4991672;28;95644;-56